Nacogdoches, TX

12:04 AM CDT on March 29, 2015 (GMT -0500)
South Side | | Change Station
CLOSE
Current Station
Personal Weather Station
Location: Nacogdoches, TX
Elevation: 331 ft
Nearby Weather Stations
Active Advisory: Flood Warning

Elev 331 ft 31.59 °N, 94.66 °W | Updated 2 seconds ago

Clear
Clear
63.1 °F
Feels Like 63.1 °F
N
0.0
Wind Variable Wind from NW
Gusts 0.0 mph

Today
High -- | Low -- °F
--% Chance of Precip.
Yesterday
High -- | Low -- °F
Precip. -- in
7:11 AM 7:36 PM
Waxing Gibbous, 68% visible
Pressure 30.12 in
Visibility 10.0 miles
Clouds Clear
Dew Point 51 °F
Humidity 65%
Rainfall 0.00 in
Snow Depth Not available.
UV 0 out of 12
Pollen 10.40 out of 12
Air Quality Not available.
Flu Activity Not available.
METAR KOCH 290455Z AUTO 14004KT 10SM CLR 15/09 A3012 RMK AO1

More Conditions Fewer Conditions

Pressure 30.12 in
Visibility 10.0 miles
Clouds Clear
Dew Point 51 °F
Humidity 65%
Rainfall 0.00 in
Snow Depth Not available.
UV 0 out of 12
Pollen 10.40 out of 12
Air Quality Not available.
Flu Activity Not available.
METAR KOCH 290455Z AUTO 14004KT 10SM CLR 15/09 A3012 RMK AO1

More Conditions Fewer Conditions

10-Day Weather Forecast

Almanac

Astronomy

Mar. 29, 2015 Rise Set
Actual Time
Civil Twilight
Nautical Twilight
Astronomical Twilight
Moon
Length of Visible Light
Length of Day
Tomorrow will be .
, % of the Moon is Illuminated

Today's Extremes

State Highs State Lows

Community

WunderPhotos

Upload Photos

1,809,189 photos uploaded!

WunderBlogs® & News

Nearby

Air Quality

  Air Quality AQ Index Pollutant
Not available.

Snow Depth

Station Depth Elevation

Earthquake Activity

City Distance Mag. Time & Date
Minimum magnitude displayed is 2.5.

Coastal Water Temperatures

Place Temperature

Stations

Nearby Weather Stations

Station Location Temp. Windchill Dew Point Humidity Wind Precip. Elev Updated Type
                   
Flood Warning
Statement as of 9:21 AM CDT on March 28, 2015

... The Flood Warning extended until Tuesday evening... the Flood
Warning continues for
the Attoyac Bayou near Chireno, Texas.
* Until Tuesday evening... or until the warning is cancelled.
* At 830 am Saturday the stage was 15.1 feet.
* Minor flooding is occurring and minor flooding is forecast.
* Flood stage is 14 feet.
* Forecast... The Bayou will continue to fall to below flood stage by
early Tuesday morning.


Lat... Lon 3142 9432 3191 9451 3192 9447 3157 9429 3150 9430




921 am CDT Sat Mar 28 2015

The Flood Warning continues for
the Angelina river near Lufkin, Texas.
* Until further notice... or until the warning is cancelled.
* At 700 am Saturday the stage was 11.7 feet.
* Minor flooding is occurring and minor flooding is forecast.
* Flood stage is 10 feet.
* Forecast... the river will continue to fall to a stage of 11.6 feet
by Sunday morning.


Lat... Lon 3144 9462 3145 9474 3148 9482 3150 9482 3146 9466